sensor_id;sensor_type;location;lat;lon;timestamp;P1;durP1;ratioP1;P2;durP2;ratioP2
78344;SDS011;67620;51.134;6.548;2023-07-31T00:01:47;7.05;;;2.90;;
78344;SDS011;67620;51.134;6.548;2023-07-31T00:06:38;8.23;;;3.70;;
78344;SDS011;67620;51.134;6.548;2023-07-31T00:11:29;9.27;;;3.00;;
78344;SDS011;67620;51.134;6.548;2023-07-31T00:16:20;9.38;;;3.20;;
78344;SDS011;67620;51.134;6.548;2023-07-31T00:18:46;8.90;;;3.47;;
78344;SDS011;67620;51.134;6.548;2023-07-31T00:23:37;7.30;;;3.17;;
78344;SDS011;67620;51.134;6.548;2023-07-31T00:26:02;8.52;;;3.33;;
78344;SDS011;67620;51.134;6.548;2023-07-31T00:28:28;6.82;;;3.20;;
78344;SDS011;67620;51.134;6.548;2023-07-31T00:30:53;6.47;;;3.20;;
78344;SDS011;67620;51.134;6.548;2023-07-31T00:35:44;10.02;;;3.10;;
78344;SDS011;67620;51.134;6.548;2023-07-31T00:40:35;8.48;;;2.80;;
78344;SDS011;67620;51.134;6.548;2023-07-31T00:43:04;10.13;;;3.53;;
78344;SDS011;67620;51.134;6.548;2023-07-31T00:45:30;8.10;;;2.95;;
78344;SDS011;67620;51.134;6.548;2023-07-31T00:47:56;7.75;;;3.10;;
78344;SDS011;67620;51.134;6.548;2023-07-31T00:50:22;9.02;;;3.45;;
78344;SDS011;67620;51.134;6.548;2023-07-31T00:52:49;8.93;;;3.75;;
78344;SDS011;67620;51.134;6.548;2023-07-31T00:55:15;7.78;;;3.42;;
78344;SDS011;67620;51.134;6.548;2023-07-31T00:57:41;8.65;;;3.45;;
78344;SDS011;67620;51.134;6.548;2023-07-31T01:00:07;9.27;;;3.35;;
78344;SDS011;67620;51.134;6.548;2023-07-31T01:02:33;6.95;;;2.97;;
78344;SDS011;67620;51.134;6.548;2023-07-31T01:04:59;7.85;;;3.30;;
78344;SDS011;67620;51.134;6.548;2023-07-31T01:10:16;7.78;;;3.28;;
78344;SDS011;67620;51.134;6.548;2023-07-31T01:12:45;7.75;;;3.05;;
78344;SDS011;67620;51.134;6.548;2023-07-31T01:15:12;9.75;;;3.13;;
78344;SDS011;67620;51.134;6.548;2023-07-31T01:17:40;9.70;;;3.05;;
78344;SDS011;67620;51.134;6.548;2023-07-31T01:20:10;7.78;;;3.42;;
78344;SDS011;67620;51.134;6.548;2023-07-31T01:22:54;9.52;;;3.42;;
78344;SDS011;67620;51.134;6.548;2023-07-31T01:26:16;7.65;;;2.92;;
78344;SDS011;67620;51.134;6.548;2023-07-31T01:28:40;9.90;;;3.63;;
78344;SDS011;67620;51.134;6.548;2023-07-31T01:31:09;10.85;;;3.90;;
78344;SDS011;67620;51.134;6.548;2023-07-31T01:33:37;8.65;;;3.25;;
78344;SDS011;67620;51.134;6.548;2023-07-31T01:36:04;9.13;;;3.42;;
78344;SDS011;67620;51.134;6.548;2023-07-31T01:38:30;6.93;;;3.22;;
78344;SDS011;67620;51.134;6.548;2023-07-31T01:40:55;9.48;;;3.47;;
78344;SDS011;67620;51.134;6.548;2023-07-31T01:45:46;8.57;;;3.30;;
78344;SDS011;67620;51.134;6.548;2023-07-31T01:48:11;11.77;;;3.60;;
78344;SDS011;67620;51.134;6.548;2023-07-31T01:50:37;7.95;;;3.65;;
78344;SDS011;67620;51.134;6.548;2023-07-31T01:53:02;9.07;;;3.63;;
78344;SDS011;67620;51.134;6.548;2023-07-31T01:55:28;8.02;;;3.42;;
78344;SDS011;67620;51.134;6.548;2023-07-31T01:57:53;6.47;;;2.92;;
78344;SDS011;67620;51.134;6.548;2023-07-31T02:00:19;9.27;;;3.28;;
78344;SDS011;67620;51.134;6.548;2023-07-31T02:02:44;7.18;;;3.00;;
78344;SDS011;67620;51.134;6.548;2023-07-31T02:05:10;8.00;;;3.63;;
78344;SDS011;67620;51.134;6.548;2023-07-31T02:07:35;8.30;;;3.25;;
78344;SDS011;67620;51.134;6.548;2023-07-31T02:10:01;9.77;;;3.55;;
78344;SDS011;67620;51.134;6.548;2023-07-31T02:12:26;9.38;;;3.50;;
78344;SDS011;67620;51.134;6.548;2023-07-31T02:14:55;9.68;;;3.08;;
78344;SDS011;67620;51.134;6.548;2023-07-31T02:17:20;5.35;;;3.05;;
78344;SDS011;67620;51.134;6.548;2023-07-31T02:19:46;7.53;;;3.28;;
78344;SDS011;67620;51.134;6.548;2023-07-31T02:24:37;10.15;;;3.08;;
78344;SDS011;67620;51.134;6.548;2023-07-31T02:27:03;8.88;;;3.47;;
78344;SDS011;67620;51.134;6.548;2023-07-31T02:29:28;9.38;;;3.15;;
78344;SDS011;67620;51.134;6.548;2023-07-31T02:31:54;8.77;;;3.40;;
78344;SDS011;67620;51.134;6.548;2023-07-31T02:34:19;9.15;;;3.45;;
78344;SDS011;67620;51.134;6.548;2023-07-31T02:36:45;8.60;;;3.40;;
78344;SDS011;67620;51.134;6.548;2023-07-31T02:39:10;7.03;;;3.55;;
78344;SDS011;67620;51.134;6.548;2023-07-31T02:41:36;7.10;;;3.05;;
78344;SDS011;67620;51.134;6.548;2023-07-31T02:44:01;6.95;;;3.13;;
78344;SDS011;67620;51.134;6.548;2023-07-31T02:46:27;8.88;;;3.60;;
78344;SDS011;67620;51.134;6.548;2023-07-31T02:48:53;6.50;;;3.30;;
78344;SDS011;67620;51.134;6.548;2023-07-31T02:51:18;11.40;;;3.75;;
78344;SDS011;67620;51.134;6.548;2023-07-31T02:53:46;12.23;;;3.55;;
78344;SDS011;67620;51.134;6.548;2023-07-31T02:56:12;7.95;;;3.33;;
78344;SDS011;67620;51.134;6.548;2023-07-31T02:58:38;11.73;;;3.65;;
78344;SDS011;67620;51.134;6.548;2023-07-31T03:01:03;8.15;;;3.22;;
78344;SDS011;67620;51.134;6.548;2023-07-31T03:03:29;9.65;;;3.03;;
78344;SDS011;67620;51.134;6.548;2023-07-31T03:05:54;6.47;;;3.00;;
78344;SDS011;67620;51.134;6.548;2023-07-31T03:08:20;6.35;;;3.58;;
78344;SDS011;67620;51.134;6.548;2023-07-31T03:10:46;9.20;;;2.85;;
78344;SDS011;67620;51.134;6.548;2023-07-31T03:13:11;10.32;;;3.42;;
78344;SDS011;67620;51.134;6.548;2023-07-31T03:15:37;9.35;;;3.30;;
78344;SDS011;67620;51.134;6.548;2023-07-31T03:18:02;11.27;;;3.90;;
78344;SDS011;67620;51.134;6.548;2023-07-31T03:20:28;7.75;;;3.17;;
78344;SDS011;67620;51.134;6.548;2023-07-31T03:22:53;8.90;;;3.40;;
78344;SDS011;67620;51.134;6.548;2023-07-31T03:27:44;11.23;;;4.18;;
78344;SDS011;67620;51.134;6.548;2023-07-31T03:30:10;8.85;;;3.58;;
78344;SDS011;67620;51.134;6.548;2023-07-31T03:32:35;7.43;;;3.70;;
78344;SDS011;67620;51.134;6.548;2023-07-31T03:37:26;8.38;;;3.30;;
78344;SDS011;67620;51.134;6.548;2023-07-31T03:39:52;9.77;;;4.00;;
78344;SDS011;67620;51.134;6.548;2023-07-31T03:44:43;7.63;;;3.90;;
78344;SDS011;67620;51.134;6.548;2023-07-31T03:47:09;9.45;;;3.63;;
78344;SDS011;67620;51.134;6.548;2023-07-31T03:49:34;10.40;;;4.05;;
78344;SDS011;67620;51.134;6.548;2023-07-31T03:52:00;9.10;;;3.85;;
78344;SDS011;67620;51.134;6.548;2023-07-31T03:54:25;11.55;;;4.07;;
78344;SDS011;67620;51.134;6.548;2023-07-31T03:56:51;9.45;;;4.28;;
78344;SDS011;67620;51.134;6.548;2023-07-31T03:59:16;9.43;;;3.83;;
78344;SDS011;67620;51.134;6.548;2023-07-31T04:01:42;9.65;;;3.90;;
78344;SDS011;67620;51.134;6.548;2023-07-31T04:04:07;12.18;;;4.47;;
78344;SDS011;67620;51.134;6.548;2023-07-31T04:06:33;10.35;;;3.85;;
78344;SDS011;67620;51.134;6.548;2023-07-31T04:08:58;10.55;;;3.58;;
78344;SDS011;67620;51.134;6.548;2023-07-31T04:11:24;8.45;;;3.72;;
78344;SDS011;67620;51.134;6.548;2023-07-31T04:13:49;7.47;;;3.60;;
78344;SDS011;67620;51.134;6.548;2023-07-31T04:16:15;9.25;;;4.00;;
78344;SDS011;67620;51.134;6.548;2023-07-31T04:18:40;8.88;;;4.15;;
78344;SDS011;67620;51.134;6.548;2023-07-31T04:21:06;10.32;;;4.38;;
78344;SDS011;67620;51.134;6.548;2023-07-31T04:23:31;8.60;;;4.25;;
78344;SDS011;67620;51.134;6.548;2023-07-31T04:25:57;9.02;;;4.07;;
78344;SDS011;67620;51.134;6.548;2023-07-31T04:28:22;10.20;;;4.55;;
78344;SDS011;67620;51.134;6.548;2023-07-31T04:30:48;11.30;;;4.50;;
78344;SDS011;67620;51.134;6.548;2023-07-31T04:33:13;9.23;;;3.80;;
78344;SDS011;67620;51.134;6.548;2023-07-31T04:35:39;9.20;;;4.35;;
78344;SDS011;67620;51.134;6.548;2023-07-31T04:38:04;7.43;;;3.67;;
78344;SDS011;67620;51.134;6.548;2023-07-31T04:40:30;7.78;;;4.25;;
78344;SDS011;67620;51.134;6.548;2023-07-31T04:42:55;8.77;;;3.88;;
78344;SDS011;67620;51.134;6.548;2023-07-31T04:45:21;10.15;;;4.10;;
78344;SDS011;67620;51.134;6.548;2023-07-31T04:47:46;8.07;;;3.72;;
78344;SDS011;67620;51.134;6.548;2023-07-31T04:50:12;10.95;;;3.58;;
78344;SDS011;67620;51.134;6.548;2023-07-31T04:52:37;8.93;;;4.40;;
78344;SDS011;67620;51.134;6.548;2023-07-31T04:55:04;7.82;;;3.47;;
78344;SDS011;67620;51.134;6.548;2023-07-31T04:57:30;11.35;;;4.05;;
78344;SDS011;67620;51.134;6.548;2023-07-31T04:59:55;8.65;;;3.95;;
78344;SDS011;67620;51.134;6.548;2023-07-31T05:02:21;8.82;;;4.05;;
78344;SDS011;67620;51.134;6.548;2023-07-31T05:04:46;8.68;;;4.32;;
78344;SDS011;67620;51.134;6.548;2023-07-31T05:07:12;9.77;;;3.95;;
78344;SDS011;67620;51.134;6.548;2023-07-31T05:12:04;8.25;;;3.75;;
78344;SDS011;67620;51.134;6.548;2023-07-31T05:14:30;6.10;;;3.45;;
78344;SDS011;67620;51.134;6.548;2023-07-31T05:16:56;7.70;;;3.70;;
78344;SDS011;67620;51.134;6.548;2023-07-31T05:19:21;5.60;;;3.53;;
78344;SDS011;67620;51.134;6.548;2023-07-31T05:21:47;7.25;;;3.70;;
78344;SDS011;67620;51.134;6.548;2023-07-31T05:24:13;7.65;;;3.67;;
78344;SDS011;67620;51.134;6.548;2023-07-31T05:26:38;7.47;;;3.95;;
78344;SDS011;67620;51.134;6.548;2023-07-31T05:29:04;6.85;;;3.70;;
78344;SDS011;67620;51.134;6.548;2023-07-31T05:31:29;6.53;;;3.45;;
78344;SDS011;67620;51.134;6.548;2023-07-31T05:33:57;6.78;;;3.53;;
78344;SDS011;67620;51.134;6.548;2023-07-31T05:36:22;7.03;;;3.45;;
78344;SDS011;67620;51.134;6.548;2023-07-31T05:41:13;8.48;;;3.78;;
78344;SDS011;67620;51.134;6.548;2023-07-31T05:46:04;4.80;;;3.17;;
78344;SDS011;67620;51.134;6.548;2023-07-31T05:48:31;6.68;;;3.25;;
78344;SDS011;67620;51.134;6.548;2023-07-31T05:50:59;5.57;;;3.25;;
78344;SDS011;67620;51.134;6.548;2023-07-31T05:53:24;7.00;;;3.17;;
78344;SDS011;67620;51.134;6.548;2023-07-31T05:58:15;7.38;;;3.03;;
78344;SDS011;67620;51.134;6.548;2023-07-31T06:00:41;7.47;;;3.65;;
78344;SDS011;67620;51.134;6.548;2023-07-31T06:03:06;6.47;;;2.97;;
78344;SDS011;67620;51.134;6.548;2023-07-31T06:07:57;7.32;;;3.55;;
78344;SDS011;67620;51.134;6.548;2023-07-31T06:10:23;6.30;;;3.25;;
78344;SDS011;67620;51.134;6.548;2023-07-31T06:12:48;8.13;;;3.47;;
78344;SDS011;67620;51.134;6.548;2023-07-31T06:17:39;8.32;;;3.55;;
78344;SDS011;67620;51.134;6.548;2023-07-31T06:20:06;8.70;;;3.15;;
78344;SDS011;67620;51.134;6.548;2023-07-31T06:22:32;12.13;;;3.75;;
78344;SDS011;67620;51.134;6.548;2023-07-31T06:24:57;8.45;;;3.47;;
78344;SDS011;67620;51.134;6.548;2023-07-31T06:27:23;7.55;;;3.22;;
78344;SDS011;67620;51.134;6.548;2023-07-31T06:32:14;5.03;;;2.63;;
78344;SDS011;67620;51.134;6.548;2023-07-31T06:37:05;8.00;;;3.20;;
78344;SDS011;67620;51.134;6.548;2023-07-31T06:39:31;6.68;;;3.28;;
78344;SDS011;67620;51.134;6.548;2023-07-31T06:44:22;7.18;;;3.10;;
78344;SDS011;67620;51.134;6.548;2023-07-31T06:49:13;9.48;;;2.92;;
78344;SDS011;67620;51.134;6.548;2023-07-31T06:51:40;5.32;;;2.88;;
78344;SDS011;67620;51.134;6.548;2023-07-31T06:54:06;6.07;;;2.75;;
78344;SDS011;67620;51.134;6.548;2023-07-31T06:56:32;6.03;;;2.60;;
78344;SDS011;67620;51.134;6.548;2023-07-31T06:58:58;5.65;;;2.60;;
78344;SDS011;67620;51.134;6.548;2023-07-31T07:01:23;6.63;;;3.15;;
78344;SDS011;67620;51.134;6.548;2023-07-31T07:06:15;6.95;;;3.05;;
78344;SDS011;67620;51.134;6.548;2023-07-31T07:08:41;6.90;;;3.00;;
78344;SDS011;67620;51.134;6.548;2023-07-31T07:11:07;7.95;;;3.40;;
78344;SDS011;67620;51.134;6.548;2023-07-31T07:13:33;6.43;;;3.30;;
78344;SDS011;67620;51.134;6.548;2023-07-31T07:15:59;6.90;;;2.83;;
78344;SDS011;67620;51.134;6.548;2023-07-31T07:20:50;5.85;;;2.58;;
78344;SDS011;67620;51.134;6.548;2023-07-31T07:23:17;7.43;;;3.30;;
78344;SDS011;67620;51.134;6.548;2023-07-31T07:25:43;7.28;;;3.33;;
78344;SDS011;67620;51.134;6.548;2023-07-31T07:28:10;6.63;;;2.58;;
78344;SDS011;67620;51.134;6.548;2023-07-31T07:30:35;6.82;;;3.30;;
78344;SDS011;67620;51.134;6.548;2023-07-31T07:35:26;5.93;;;2.78;;
78344;SDS011;67620;51.134;6.548;2023-07-31T07:40:18;5.72;;;2.88;;
78344;SDS011;67620;51.134;6.548;2023-07-31T07:42:44;5.13;;;2.53;;
78344;SDS011;67620;51.134;6.548;2023-07-31T07:47:35;7.00;;;2.65;;
78344;SDS011;67620;51.134;6.548;2023-07-31T07:50:00;5.45;;;2.55;;
78344;SDS011;67620;51.134;6.548;2023-07-31T07:52:26;4.63;;;2.25;;
78344;SDS011;67620;51.134;6.548;2023-07-31T07:57:17;6.43;;;2.80;;
78344;SDS011;67620;51.134;6.548;2023-07-31T07:59:43;7.05;;;3.03;;
78344;SDS011;67620;51.134;6.548;2023-07-31T08:02:09;5.70;;;2.63;;
78344;SDS011;67620;51.134;6.548;2023-07-31T08:04:34;5.97;;;2.50;;
78344;SDS011;67620;51.134;6.548;2023-07-31T08:07:00;4.47;;;2.47;;
78344;SDS011;67620;51.134;6.548;2023-07-31T08:09:25;6.38;;;2.67;;
78344;SDS011;67620;51.134;6.548;2023-07-31T08:11:51;6.22;;;3.00;;
78344;SDS011;67620;51.134;6.548;2023-07-31T08:16:42;5.47;;;2.72;;
78344;SDS011;67620;51.134;6.548;2023-07-31T08:19:07;6.93;;;2.50;;
78344;SDS011;67620;51.134;6.548;2023-07-31T08:21:33;4.43;;;2.30;;
78344;SDS011;67620;51.134;6.548;2023-07-31T08:23:58;9.95;;;2.78;;
78344;SDS011;67620;51.134;6.548;2023-07-31T08:26:24;6.53;;;2.95;;
78344;SDS011;67620;51.134;6.548;2023-07-31T08:31:15;6.43;;;2.70;;
78344;SDS011;67620;51.134;6.548;2023-07-31T08:33:40;6.30;;;2.70;;
78344;SDS011;67620;51.134;6.548;2023-07-31T08:36:06;6.47;;;2.80;;
78344;SDS011;67620;51.134;6.548;2023-07-31T08:40:57;5.35;;;3.00;;
78344;SDS011;67620;51.134;6.548;2023-07-31T08:43:27;3.60;;;2.70;;
78344;SDS011;67620;51.134;6.548;2023-07-31T08:45:53;5.85;;;2.97;;
78344;SDS011;67620;51.134;6.548;2023-07-31T08:48:21;5.20;;;3.10;;
78344;SDS011;67620;51.134;6.548;2023-07-31T08:50:48;4.43;;;2.63;;
78344;SDS011;67620;51.134;6.548;2023-07-31T08:53:13;6.15;;;3.00;;
78344;SDS011;67620;51.134;6.548;2023-07-31T08:55:39;6.57;;;2.63;;
78344;SDS011;67620;51.134;6.548;2023-07-31T08:58:05;5.63;;;2.97;;
78344;SDS011;67620;51.134;6.548;2023-07-31T09:00:34;5.95;;;3.28;;
78344;SDS011;67620;51.134;6.548;2023-07-31T09:03:08;7.63;;;3.08;;
78344;SDS011;67620;51.134;6.548;2023-07-31T09:05:35;8.32;;;2.70;;
78344;SDS011;67620;51.134;6.548;2023-07-31T09:08:01;7.28;;;3.00;;
78344;SDS011;67620;51.134;6.548;2023-07-31T09:10:29;6.78;;;2.78;;
78344;SDS011;67620;51.134;6.548;2023-07-31T09:12:54;5.32;;;3.10;;
78344;SDS011;67620;51.134;6.548;2023-07-31T09:15:21;7.75;;;3.22;;
78344;SDS011;67620;51.134;6.548;2023-07-31T09:17:48;5.38;;;3.03;;
78344;SDS011;67620;51.134;6.548;2023-07-31T09:20:26;7.97;;;2.85;;
78344;SDS011;67620;51.134;6.548;2023-07-31T09:22:51;6.72;;;2.70;;
78344;SDS011;67620;51.134;6.548;2023-07-31T09:27:52;5.20;;;2.42;;
78344;SDS011;67620;51.134;6.548;2023-07-31T09:30:25;5.47;;;2.60;;
78344;SDS011;67620;51.134;6.548;2023-07-31T09:32:52;4.78;;;2.72;;
78344;SDS011;67620;51.134;6.548;2023-07-31T09:35:30;5.53;;;2.42;;
78344;SDS011;67620;51.134;6.548;2023-07-31T09:37:58;7.15;;;2.60;;
78344;SDS011;67620;51.134;6.548;2023-07-31T09:42:52;7.38;;;3.35;;
78344;SDS011;67620;51.134;6.548;2023-07-31T09:45:19;6.20;;;2.80;;
78344;SDS011;67620;51.134;6.548;2023-07-31T09:47:47;4.07;;;2.17;;
78344;SDS011;67620;51.134;6.548;2023-07-31T09:50:13;5.40;;;2.70;;
78344;SDS011;67620;51.134;6.548;2023-07-31T09:52:41;6.32;;;3.05;;
78344;SDS011;67620;51.134;6.548;2023-07-31T09:55:07;4.40;;;2.72;;
78344;SDS011;67620;51.134;6.548;2023-07-31T09:57:33;6.72;;;3.28;;
78344;SDS011;67620;51.134;6.548;2023-07-31T10:00:02;6.78;;;2.92;;
78344;SDS011;67620;51.134;6.548;2023-07-31T10:02:28;5.80;;;2.65;;
78344;SDS011;67620;51.134;6.548;2023-07-31T10:04:57;5.97;;;2.97;;
78344;SDS011;67620;51.134;6.548;2023-07-31T10:07:26;7.88;;;2.97;;
78344;SDS011;67620;51.134;6.548;2023-07-31T10:09:54;5.88;;;2.80;;
78344;SDS011;67620;51.134;6.548;2023-07-31T10:12:22;8.05;;;3.03;;
78344;SDS011;67620;51.134;6.548;2023-07-31T10:14:55;6.38;;;3.20;;
78344;SDS011;67620;51.134;6.548;2023-07-31T10:17:22;5.03;;;2.83;;
78344;SDS011;67620;51.134;6.548;2023-07-31T10:19:48;6.22;;;2.38;;
78344;SDS011;67620;51.134;6.548;2023-07-31T10:22:15;5.55;;;2.85;;
78344;SDS011;67620;51.134;6.548;2023-07-31T10:24:45;6.88;;;2.72;;
78344;SDS011;67620;51.134;6.548;2023-07-31T10:27:11;6.32;;;3.35;;
78344;SDS011;67620;51.134;6.548;2023-07-31T10:29:41;5.30;;;3.05;;
78344;SDS011;67620;51.134;6.548;2023-07-31T10:32:09;3.72;;;2.85;;
78344;SDS011;67620;51.134;6.548;2023-07-31T10:34:36;6.47;;;3.03;;
78344;SDS011;67620;51.134;6.548;2023-07-31T10:37:23;4.65;;;2.70;;
78344;SDS011;67620;51.134;6.548;2023-07-31T10:42:29;5.03;;;2.80;;
78344;SDS011;67620;51.134;6.548;2023-07-31T10:44:59;4.60;;;2.75;;
78344;SDS011;67620;51.134;6.548;2023-07-31T10:47:27;5.85;;;2.22;;
78344;SDS011;67620;51.134;6.548;2023-07-31T10:49:52;5.25;;;2.30;;
78344;SDS011;67620;51.134;6.548;2023-07-31T10:52:35;3.08;;;1.70;;
78344;SDS011;67620;51.134;6.548;2023-07-31T10:55:23;4.78;;;1.75;;
78344;SDS011;67620;51.134;6.548;2023-07-31T10:57:55;3.15;;;1.88;;
78344;SDS011;67620;51.134;6.548;2023-07-31T11:00:26;2.35;;;1.15;;
78344;SDS011;67620;51.134;6.548;2023-07-31T11:02:56;2.85;;;1.67;;
78344;SDS011;67620;51.134;6.548;2023-07-31T11:05:46;3.92;;;1.52;;
78344;SDS011;67620;51.134;6.548;2023-07-31T11:08:27;3.13;;;1.55;;
78344;SDS011;67620;51.134;6.548;2023-07-31T11:13:54;4.10;;;1.33;;
78344;SDS011;67620;51.134;6.548;2023-07-31T11:16:20;5.10;;;1.40;;
78344;SDS011;67620;51.134;6.548;2023-07-31T11:18:47;2.47;;;1.15;;
78344;SDS011;67620;51.134;6.548;2023-07-31T11:23:48;3.47;;;1.35;;
78344;SDS011;67620;51.134;6.548;2023-07-31T11:26:15;2.63;;;1.17;;
78344;SDS011;67620;51.134;6.548;2023-07-31T11:28:41;3.55;;;1.50;;
78344;SDS011;67620;51.134;6.548;2023-07-31T11:31:10;4.32;;;1.38;;
78344;SDS011;67620;51.134;6.548;2023-07-31T11:33:36;2.25;;;1.38;;
78344;SDS011;67620;51.134;6.548;2023-07-31T11:36:01;2.22;;;1.38;;
78344;SDS011;67620;51.134;6.548;2023-07-31T11:38:28;2.42;;;1.17;;
78344;SDS011;67620;51.134;6.548;2023-07-31T11:40:56;2.38;;;1.10;;
78344;SDS011;67620;51.134;6.548;2023-07-31T11:43:23;2.67;;;1.13;;
78344;SDS011;67620;51.134;6.548;2023-07-31T11:45:49;3.50;;;1.50;;
78344;SDS011;67620;51.134;6.548;2023-07-31T11:48:25;2.78;;;1.35;;
78344;SDS011;67620;51.134;6.548;2023-07-31T11:50:52;3.65;;;1.30;;
78344;SDS011;67620;51.134;6.548;2023-07-31T11:53:28;2.45;;;1.35;;
78344;SDS011;67620;51.134;6.548;2023-07-31T11:56:01;3.08;;;1.25;;
78344;SDS011;67620;51.134;6.548;2023-07-31T11:58:29;3.95;;;1.52;;
78344;SDS011;67620;51.134;6.548;2023-07-31T12:00:59;3.85;;;1.50;;
78344;SDS011;67620;51.134;6.548;2023-07-31T12:03:25;4.47;;;1.90;;
78344;SDS011;67620;51.134;6.548;2023-07-31T12:05:54;6.13;;;1.92;;
78344;SDS011;67620;51.134;6.548;2023-07-31T12:08:20;3.55;;;1.80;;
78344;SDS011;67620;51.134;6.548;2023-07-31T12:10:49;5.10;;;1.80;;
78344;SDS011;67620;51.134;6.548;2023-07-31T12:13:22;3.90;;;2.22;;
78344;SDS011;67620;51.134;6.548;2023-07-31T12:15:53;4.60;;;2.00;;
78344;SDS011;67620;51.134;6.548;2023-07-31T12:18:23;3.38;;;1.90;;
78344;SDS011;67620;51.134;6.548;2023-07-31T12:20:57;6.70;;;2.20;;
78344;SDS011;67620;51.134;6.548;2023-07-31T12:23:27;3.28;;;2.10;;
78344;SDS011;67620;51.134;6.548;2023-07-31T12:26:01;4.07;;;2.20;;
78344;SDS011;67620;51.134;6.548;2023-07-31T12:28:28;3.85;;;2.40;;
78344;SDS011;67620;51.134;6.548;2023-07-31T12:30:56;5.88;;;2.70;;
78344;SDS011;67620;51.134;6.548;2023-07-31T12:33:32;3.40;;;2.30;;
78344;SDS011;67620;51.134;6.548;2023-07-31T12:36:00;4.95;;;2.53;;
78344;SDS011;67620;51.134;6.548;2023-07-31T12:38:27;5.22;;;2.40;;
78344;SDS011;67620;51.134;6.548;2023-07-31T12:40:53;4.93;;;2.60;;
78344;SDS011;67620;51.134;6.548;2023-07-31T12:43:18;4.60;;;2.55;;
78344;SDS011;67620;51.134;6.548;2023-07-31T12:45:44;4.35;;;2.60;;
78344;SDS011;67620;51.134;6.548;2023-07-31T12:48:10;6.47;;;2.70;;
78344;SDS011;67620;51.134;6.548;2023-07-31T12:50:35;4.47;;;2.75;;
78344;SDS011;67620;51.134;6.548;2023-07-31T12:53:02;5.80;;;2.35;;
78344;SDS011;67620;51.134;6.548;2023-07-31T12:55:31;3.92;;;2.90;;
78344;SDS011;67620;51.134;6.548;2023-07-31T12:57:59;4.25;;;2.60;;
78344;SDS011;67620;51.134;6.548;2023-07-31T13:00:25;4.90;;;2.92;;
78344;SDS011;67620;51.134;6.548;2023-07-31T13:02:51;6.43;;;2.50;;
78344;SDS011;67620;51.134;6.548;2023-07-31T13:05:16;6.90;;;2.65;;
78344;SDS011;67620;51.134;6.548;2023-07-31T13:07:43;4.57;;;2.83;;
78344;SDS011;67620;51.134;6.548;2023-07-31T13:10:08;6.90;;;3.25;;
78344;SDS011;67620;51.134;6.548;2023-07-31T13:12:34;4.43;;;2.60;;
78344;SDS011;67620;51.134;6.548;2023-07-31T13:14:59;4.60;;;2.33;;
78344;SDS011;67620;51.134;6.548;2023-07-31T13:17:25;6.72;;;2.60;;
78344;SDS011;67620;51.134;6.548;2023-07-31T13:19:51;5.28;;;2.42;;
78344;SDS011;67620;51.134;6.548;2023-07-31T13:22:17;5.55;;;2.30;;
78344;SDS011;67620;51.134;6.548;2023-07-31T13:24:42;5.40;;;2.70;;
78344;SDS011;67620;51.134;6.548;2023-07-31T13:27:08;6.60;;;2.65;;
78344;SDS011;67620;51.134;6.548;2023-07-31T13:29:33;5.55;;;3.00;;
78344;SDS011;67620;51.134;6.548;2023-07-31T13:31:59;4.72;;;2.50;;
78344;SDS011;67620;51.134;6.548;2023-07-31T13:34:24;6.40;;;2.63;;
78344;SDS011;67620;51.134;6.548;2023-07-31T13:36:50;4.90;;;2.72;;
78344;SDS011;67620;51.134;6.548;2023-07-31T13:39:15;6.35;;;2.78;;
78344;SDS011;67620;51.134;6.548;2023-07-31T13:41:41;4.57;;;2.30;;
78344;SDS011;67620;51.134;6.548;2023-07-31T13:44:06;4.13;;;2.15;;
78344;SDS011;67620;51.134;6.548;2023-07-31T13:46:32;4.53;;;2.33;;
78344;SDS011;67620;51.134;6.548;2023-07-31T13:48:58;3.35;;;2.33;;
78344;SDS011;67620;51.134;6.548;2023-07-31T13:51:24;6.03;;;2.42;;
78344;SDS011;67620;51.134;6.548;2023-07-31T13:53:50;4.60;;;2.50;;
78344;SDS011;67620;51.134;6.548;2023-07-31T13:56:16;6.03;;;3.05;;
78344;SDS011;67620;51.134;6.548;2023-07-31T13:58:41;3.97;;;2.55;;
78344;SDS011;67620;51.134;6.548;2023-07-31T14:01:07;5.45;;;2.35;;
78344;SDS011;67620;51.134;6.548;2023-07-31T14:03:32;4.70;;;2.47;;
78344;SDS011;67620;51.134;6.548;2023-07-31T14:05:58;3.75;;;2.13;;
78344;SDS011;67620;51.134;6.548;2023-07-31T14:08:24;3.70;;;2.55;;
78344;SDS011;67620;51.134;6.548;2023-07-31T14:10:49;4.38;;;2.20;;
78344;SDS011;67620;51.134;6.548;2023-07-31T14:13:15;3.58;;;2.15;;
78344;SDS011;67620;51.134;6.548;2023-07-31T14:15:43;5.75;;;2.35;;
78344;SDS011;67620;51.134;6.548;2023-07-31T14:18:09;5.47;;;2.25;;
78344;SDS011;67620;51.134;6.548;2023-07-31T14:20:35;3.85;;;2.25;;
78344;SDS011;67620;51.134;6.548;2023-07-31T14:23:02;4.80;;;2.47;;
78344;SDS011;67620;51.134;6.548;2023-07-31T14:25:27;6.55;;;2.45;;
78344;SDS011;67620;51.134;6.548;2023-07-31T14:27:53;4.43;;;2.33;;
78344;SDS011;67620;51.134;6.548;2023-07-31T14:30:18;10.05;;;2.83;;
78344;SDS011;67620;51.134;6.548;2023-07-31T14:32:45;4.25;;;2.63;;
78344;SDS011;67620;51.134;6.548;2023-07-31T14:35:10;4.03;;;2.80;;
78344;SDS011;67620;51.134;6.548;2023-07-31T14:37:43;5.07;;;2.63;;
78344;SDS011;67620;51.134;6.548;2023-07-31T14:40:10;5.32;;;2.97;;
78344;SDS011;67620;51.134;6.548;2023-07-31T14:42:37;5.40;;;3.00;;
78344;SDS011;67620;51.134;6.548;2023-07-31T14:45:03;6.38;;;2.97;;
78344;SDS011;67620;51.134;6.548;2023-07-31T14:47:29;6.82;;;3.30;;
78344;SDS011;67620;51.134;6.548;2023-07-31T14:49:58;4.50;;;2.97;;
78344;SDS011;67620;51.134;6.548;2023-07-31T14:52:24;6.05;;;3.25;;
78344;SDS011;67620;51.134;6.548;2023-07-31T14:54:50;5.97;;;3.05;;
78344;SDS011;67620;51.134;6.548;2023-07-31T14:57:15;4.90;;;3.00;;
78344;SDS011;67620;51.134;6.548;2023-07-31T14:59:41;5.75;;;3.85;;
78344;SDS011;67620;51.134;6.548;2023-07-31T15:02:09;5.95;;;3.42;;
78344;SDS011;67620;51.134;6.548;2023-07-31T15:04:35;6.32;;;3.50;;
78344;SDS011;67620;51.134;6.548;2023-07-31T15:07:01;4.97;;;2.97;;
78344;SDS011;67620;51.134;6.548;2023-07-31T15:09:27;5.07;;;3.20;;
78344;SDS011;67620;51.134;6.548;2023-07-31T15:11:52;6.18;;;3.40;;
78344;SDS011;67620;51.134;6.548;2023-07-31T15:14:18;5.53;;;3.40;;
78344;SDS011;67620;51.134;6.548;2023-07-31T15:16:44;6.35;;;3.10;;
78344;SDS011;67620;51.134;6.548;2023-07-31T15:19:10;5.72;;;2.92;;
78344;SDS011;67620;51.134;6.548;2023-07-31T15:24:01;4.25;;;2.70;;
78344;SDS011;67620;51.134;6.548;2023-07-31T15:26:27;6.60;;;3.03;;
78344;SDS011;67620;51.134;6.548;2023-07-31T15:28:57;7.25;;;3.05;;
78344;SDS011;67620;51.134;6.548;2023-07-31T15:31:27;4.60;;;2.97;;
78344;SDS011;67620;51.134;6.548;2023-07-31T15:33:53;4.28;;;2.45;;
78344;SDS011;67620;51.134;6.548;2023-07-31T15:38:44;7.30;;;3.08;;
78344;SDS011;67620;51.134;6.548;2023-07-31T15:41:11;4.75;;;2.47;;
78344;SDS011;67620;51.134;6.548;2023-07-31T15:43:36;4.40;;;2.67;;
78344;SDS011;67620;51.134;6.548;2023-07-31T15:48:27;5.45;;;2.75;;
78344;SDS011;67620;51.134;6.548;2023-07-31T15:50:52;4.43;;;2.75;;
78344;SDS011;67620;51.134;6.548;2023-07-31T15:53:18;7.13;;;2.60;;
78344;SDS011;67620;51.134;6.548;2023-07-31T15:55:44;4.45;;;2.55;;
78344;SDS011;67620;51.134;6.548;2023-07-31T15:58:09;6.45;;;2.88;;
78344;SDS011;67620;51.134;6.548;2023-07-31T16:00:35;5.55;;;2.63;;
78344;SDS011;67620;51.134;6.548;2023-07-31T16:03:00;5.75;;;2.80;;
78344;SDS011;67620;51.134;6.548;2023-07-31T16:05:26;4.13;;;2.53;;
78344;SDS011;67620;51.134;6.548;2023-07-31T16:07:51;5.95;;;2.53;;
78344;SDS011;67620;51.134;6.548;2023-07-31T16:10:17;4.10;;;2.53;;
78344;SDS011;67620;51.134;6.548;2023-07-31T16:12:42;4.18;;;2.35;;
78344;SDS011;67620;51.134;6.548;2023-07-31T16:15:08;3.88;;;2.65;;
78344;SDS011;67620;51.134;6.548;2023-07-31T16:17:34;4.95;;;2.83;;
78344;SDS011;67620;51.134;6.548;2023-07-31T16:22:25;4.90;;;2.65;;
78344;SDS011;67620;51.134;6.548;2023-07-31T16:27:16;3.55;;;1.95;;